Latest Coastal Weather Observations for Ulladulla

IDN60701

Issued at 4:11 pm EST Wednesday 27 May 2015 (issued every 10 minutes, with the page automatically refreshed every 10 minutes)

About coastal observations | Map of coastal stations | Coastal observations for NSW | Marine services | Other Formats
Station Details ID: 069138 Name: ULLADULLA AWS Lat: -35.36 Lon: 150.48 Height: 35.7 m
Data from the previous 72 hours. | See also: Recent months at Ulladulla
Date/Time
EST
Temp

°C
Wind Pressure Rain
since 9am
mm
Weather Cloud Vis
km
Sea
Height
m
Swell
Dir
 
Speed
knots
Gust
knots
hPa Trend Height
m
Period
s
Dir
27/04:00pm 18.6 N 3 5 1020.4 - 0.0 - - - - - - -
27/03:30pm 18.8 NNE 3 6 1020.5 - 0.0 - - - - - - -
27/03:00pm 19.1 N 3 5 1020.5 - 0.0 - - - - - - -
27/02:30pm 18.9 NE 3 4 1020.4 - 0.0 - - - - - - -
27/02:00pm 18.9 NNE 3 5 1020.5 - 0.0 - - - - - - -
27/01:30pm 18.7 NE 3 5 1020.6 - 0.0 - - - - - - -
27/01:00pm 18.4 NNE 3 4 1021.0 - 0.0 - - - - - - -
27/12:30pm 17.8 NNE 4 5 1021.4 - 0.0 - - - - - - -
27/12:00pm 17.6 NNE 3 5 1021.7 - 0.0 - - - - - - -
27/11:30am 17.4 N 3 5 1022.3 - 0.0 - - - - - - -
27/11:00am 16.6 NNE 3 4 1022.8 - 0.0 - - - - - - -
27/10:30am 16.5 NNE 2 3 1023.3 - 0.0 - - - - - - -
27/10:00am 16.6 NNE 1 3 1023.6 - 0.0 - - - - - - -
27/09:30am 15.7 N 1 2 1023.6 - 0.0 - - - - - - -
27/09:00am 14.5 NNW 2 4 1023.6 - 0.0 - - - - - - -
27/08:30am 12.8 NNW 4 6 1023.7 - 0.0 - - - - - - -
27/08:00am 11.9 NNW 4 5 1023.7 - 0.0 - - - - - - -
27/07:30am 11.3 N 4 6 1023.6 - 0.0 - - - - - - -
27/07:00am 10.2 N 3 4 1023.5 - 0.0 - - - - - - -
27/06:30am 10.2 NNW 3 4 1023.4 - 0.0 - - - - - - -
27/06:00am 10.3 NNW 2 3 1023.0 - 0.0 - - - - - - -
27/05:30am 11.1 NNW 3 4 1023.2 - 0.0 - - - - - - -
27/05:00am 11.6 NNW 2 4 1023.1 - 0.0 - - - - - - -
27/04:30am 11.9 NNW 2 3 1023.4 - 0.0 - - - - - - -
27/04:00am 11.9 NNW 3 4 1023.6 - 0.0 - - - - - - -
27/03:30am 12.2 N 2 3 1023.7 - 0.0 - - - - - - -
27/03:00am 11.6 NNW 2 2 1024.0 - 0.0 - - - - - - -
27/02:30am 11.9 NNW 2 2 1024.6 - 0.0 - - - - - - -
27/02:00am 12.0 CALM 0 0 1024.8 - 0.0 - - - - - - -
27/01:30am 11.9 W 1 3 1024.8 - 0.0 - - - - - - -
27/01:00am 12.5 WNW 3 4 1024.9 - 0.0 - - - - - - -
27/12:30am 12.8 NW 2 3 1025.1 - 0.0 - - - - - - -
27/12:00am 13.2 NW 3 4 1025.4 - 0.0 - - - - - - -
 
Date/Time
EST
Temp

°C
Wind Pressure Rain
since 9am
mm
Weather Cloud Vis
km
Sea
Height
m
Swell
Dir
 
Speed
knots
Gust
knots
hPa Trend Height
m
Period
s
Dir
26/11:30pm 12.9 NW 2 3 1025.4 - 0.0 - - - - - - -
26/11:00pm 13.4 WNW 3 4 1025.9 - 0.0 - - - - - - -
26/10:30pm 13.1 WNW 2 3 1025.9 - 0.0 - - - - - - -
26/10:00pm 13.1 W 3 4 1026.1 - 0.0 - - - - - - -
26/09:30pm 13.1 W 3 4 1026.4 - 0.0 - - - - - - -
26/09:00pm 12.4 NW 2 3 1026.3 - 0.0 - - - - - - -
26/08:30pm 12.3 WNW 2 3 1026.4 - 0.0 - - - - - - -
26/08:00pm 12.5 NW 3 4 1026.6 - 0.0 - - - - - - -
26/07:30pm 12.8 WNW 3 4 1026.8 - 0.0 - - - - - - -
26/07:00pm 12.3 CALM 0 2 1026.8 - 0.0 - - - - - - -
26/06:30pm 13.1 CALM 0 0 1026.7 - 0.0 - - - - - - -
26/06:00pm 13.2 CALM 0 0 1026.4 - 0.0 - - - - - - -
26/05:30pm 13.9 E 1 3 1026.1 - 0.0 - - - - - - -
26/05:00pm 14.1 CALM 0 0 1026.0 - 0.0 - - - - - - -
26/04:30pm 15.0 CALM 0 0 1026.1 - 0.0 - - - - - - -
26/04:00pm 15.5 CALM 0 0 1026.2 - 0.0 - - - - - - -
26/03:30pm 15.9 E 2 3 1026.2 - 0.0 - - - - - - -
26/03:00pm 16.5 SE 1 3 1026.5 - 0.0 - - - - - - -
26/02:30pm 16.6 SSE 3 7 1026.7 - 0.0 - - - - - - -
26/02:00pm 16.4 S 4 6 1026.9 - 0.0 - - - - - - -
26/01:30pm 16.7 SSE 4 6 1027.2 - 0.0 - - - - - - -
26/01:00pm 16.6 S 4 6 1027.5 - 0.0 - - - - - - -
26/12:30pm 16.5 S 5 8 1028.0 - 0.0 - - - - - - -
26/12:00pm 16.4 S 5 8 1028.5 - 0.0 - - - - - - -
26/11:30am 16.6 S 5 7 1028.9 - 0.0 - - - - - - -
26/11:00am 16.4 SSW 4 7 1029.3 - 0.0 - - - - - - -
26/10:30am 15.8 SW 5 8 1029.6 - 0.0 - - - - - - -
26/10:00am 15.7 WSW 5 8 1029.6 - 0.0 - - - - - - -
26/09:30am 15.4 WSW 4 7 1029.8 - 0.0 - - - - - - -
26/09:00am 14.3 WSW 4 7 1029.9 - 0.0 - - - - - - -
26/08:30am 13.6 WSW 5 7 1029.8 - 0.0 - - - - - - -
26/08:00am 12.3 W 5 7 1029.8 - 0.0 - - - - - - -
26/07:30am 10.7 WSW 5 7 1029.5 - 0.0 - - - - - - -
26/07:00am 10.0 W 5 7 1029.1 - 0.0 - - - - - - -
26/06:30am 10.1 WSW 5 6 1028.8 - 0.0 - - - - - - -
26/06:00am 10.0 WSW 5 6 1028.3 - 0.0 - - - - - - -
26/05:30am 10.3 W 5 7 1028.3 - 0.0 - - - - - - -
26/05:00am 10.5 W 5 7 1028.5 - 0.0 - - - - - - -
26/04:30am 10.3 W 5 7 1028.6 - 0.0 - - - - - - -
26/04:00am 10.6 W 6 7 1028.7 - 0.0 - - - - - - -
26/03:30am 10.8 W 5 7 1028.7 - 0.0 - - - - - - -
26/03:00am 11.0 W 5 7 1028.8 - 0.0 - - - - - - -
26/02:30am 11.1 WSW 5 8 1028.9 - 0.0 - - - - - - -
26/02:00am 11.2 WSW 5 7 1028.9 - 0.0 - - - - - - -
26/01:30am 11.4 WSW 5 8 1029.1 - 0.0 - - - - - - -
26/01:00am 11.6 WSW 5 8 1029.4 - 0.0 - - - - - - -
26/12:30am 11.8 WSW 5 7 1029.5 - 0.0 - - - - - - -
26/12:00am 12.2 WSW 5 7 1029.5 - 0.0 - - - - - - -
 
Date/Time
EST
Temp

°C
Wind Pressure Rain
since 9am
mm
Weather Cloud Vis
km
Sea
Height
m
Swell
Dir
 
Speed
knots
Gust
knots
hPa Trend Height
m
Period
s
Dir
25/11:30pm 12.3 WSW 6 9 1029.3 - 0.0 - - - - - - -
25/11:00pm 12.3 WSW 5 8 1029.6 - 0.0 - - - - - - -
25/10:30pm 12.4 WSW 5 9 1029.6 - 0.0 - - - - - - -
25/10:00pm 12.6 WSW 6 10 1029.6 - 0.0 - - - - - - -
25/09:30pm 12.6 WSW 6 9 1029.7 - 0.0 - - - - - - -
25/09:00pm 12.4 WSW 5 9 1029.5 - 0.0 - - - - - - -
25/08:30pm 12.3 WSW 6 9 1029.3 - 0.0 - - - - - - -
25/08:00pm 12.3 WSW 6 8 1029.3 - 0.0 - - - - - - -
25/07:30pm 12.4 WSW 6 8 1029.3 - 0.0 - - - - - - -
25/07:00pm 12.2 WSW 5 7 1029.0 - 0.0 - - - - - - -
25/06:30pm 11.9 W 4 6 1028.7 - 0.0 - - - - - - -
25/06:00pm 12.0 W 3 5 1028.4 - 0.0 - - - - - - -
25/05:30pm 12.5 WSW 4 6 1028.2 - 0.0 - - - - - - -
25/05:00pm 13.0 WSW 4 6 1028.2 - 0.0 - - - - - - -
25/04:30pm 13.9 WSW 4 5 1028.2 - 0.0 - - - - - - -
25/04:00pm 15.0 SSW 7 11 1028.1 - 0.0 - - - - - - -
25/03:30pm 16.0 SSW 7 11 1028.1 - 0.0 - - - - - - -
25/03:00pm 16.4 S 9 11 1028.1 - 0.0 - - - - - - -
25/02:30pm 16.5 S 6 9 1028.0 - 0.0 - - - - - - -
25/02:00pm 16.5 S 6 9 1028.0 - 0.0 - - - - - - -
25/01:30pm 16.8 SSE 3 5 1028.0 - 0.0 - - - - - - -
25/01:00pm 16.4 S 4 5 1028.1 - 0.0 - - - - - - -
25/12:30pm 16.3 SSE 3 5 1028.2 - 0.0 - - - - - - -
25/12:00pm 15.8 CALM 0 0 1028.5 - 0.0 - - - - - - -
25/11:30am 16.0 CALM 0 3 1029.2 - 0.0 - - - - - - -
25/11:00am 15.1 S 2 3 1029.6 - 0.0 - - - - - - -
25/10:30am 14.6 S 3 4 1029.6 - 0.0 - - - - - - -
25/10:00am 14.8 CALM 0 0 1030.0 - 0.0 - - - - - - -
25/09:30am 13.4 NW 1 3 1030.5 - 0.0 - - - - - - -
25/09:00am 12.4 N 2 3 1030.3 - 0.0 - - - - - - -
25/08:30am 11.7 NNE 2 3 1030.1 - 0.0 - - - - - - -
25/08:00am 9.8 SSW 2 3 1030.2 - 0.0 - - - - - - -
25/07:30am 9.5 NW 3 5 1030.4 - 0.0 - - - - - - -
25/07:00am 7.7 NNW 4 5 1030.3 - 0.0 - - - - - - -
25/06:30am 8.0 NNW 2 3 1030.0 - 0.0 - - - - - - -
25/06:00am 8.2 NNW 3 3 1030.1 - 0.0 - - - - - - -
25/05:30am 9.1 NNE 1 2 1029.8 - 0.0 - - - - - - -
25/05:00am 8.0 CALM 0 1 1029.7 - 0.0 - - - - - - -
25/04:30am 8.1 NW 4 5 1029.9 - 0.0 - - - - - - -
25/04:00am 7.9 NNW 3 3 1029.9 - 0.0 - - - - - - -
25/03:30am 8.3 N 2 3 1029.9 - 0.0 - - - - - - -
25/03:00am 9.0 N 1 2 1030.2 - 0.0 - - - - - - -
25/02:30am 9.3 CALM 0 0 1030.6 - 0.0 - - - - - - -
25/02:00am 9.8 NNW 3 3 1031.0 - 0.0 - - - - - - -
25/01:30am 10.2 NNW 3 4 1030.9 - 0.0 - - - - - - -
25/01:00am 10.6 N 3 3 1030.9 - 0.0 - - - - - - -
25/12:30am 11.4 NNW 3 3 1031.1 - 0.0 - - - - - - -
25/12:00am 11.5 NNW 3 5 1031.3 - 0.0 - - - - - - -
 
Date/Time
EST
Temp

°C
Wind Pressure Rain
since 9am
mm
Weather Cloud Vis
km
Sea
Height
m
Swell
Dir
 
Speed
knots
Gust
knots
hPa Trend Height
m
Period
s
Dir
24/11:30pm 11.5 NW 3 5 1031.6 - 0.0 - - - - - - -
24/11:00pm 11.3 NNW 3 4 1031.6 - 0.0 - - - - - - -
24/10:30pm 11.5 NNW 3 4 1031.6 - 0.0 - - - - - - -
24/10:00pm 11.8 NW 3 4 1031.9 - 0.0 - - - - - - -
24/09:30pm 12.1 NW 4 5 1032.0 - 0.0 - - - - - - -
24/09:00pm 11.9 NW 4 5 1031.8 - 0.0 - - - - - - -
24/08:30pm 11.7 NW 3 5 1031.7 - 0.0 - - - - - - -
24/08:00pm 11.6 NW 3 4 1031.6 - 0.0 - - - - - - -
24/07:30pm 11.4 NW 4 4 1031.5 - 0.0 - - - - - - -
24/07:00pm 11.0 NW 2 3 1031.7 - 0.0 - - - - - - -
24/06:30pm 11.2 WNW 2 3 1031.6 - 0.0 - - - - - - -
24/06:00pm 12.1 NW 3 3 1031.5 - 0.0 - - - - - - -
24/05:30pm 12.9 CALM 0 2 1031.2 - 0.0 - - - - - - -
24/05:00pm 13.4 NNE 1 3 1031.0 - 0.0 - - - - - - -
24/04:30pm 14.7 NE 1 3 1030.8 - 0.0 - - - - - - -

Other Formats:

Comma delimited format used in spreadsheet applications
http://www.bom.gov.au/fwo/IDN60701/IDN60701.94938.axf

JavaScript Object Notation format (JSON) in row-major order
http://www.bom.gov.au/fwo/IDN60701/IDN60701.94938.json